createdAt,value
2023-04-02T00:00:17.651Z,118.31
2023-04-02T00:01:17.675Z,120.99
2023-04-02T00:02:17.751Z,126.62
2023-04-02T00:03:17.973Z,125.07
2023-04-02T00:04:17.884Z,127.93
2023-04-02T00:05:17.921Z,121.02
2023-04-02T00:06:17.959Z,123.20
2023-04-02T00:07:18.000Z,123.24
2023-04-02T00:08:18.024Z,125.06
2023-04-02T00:09:18.009Z,118.35
2023-04-02T00:10:18.030Z,122.00
2023-04-02T00:11:18.021Z,119.77
2023-04-02T00:12:18.052Z,120.56
2023-04-02T00:13:18.120Z,115.49
2023-04-02T00:14:18.151Z,114.06
2023-04-02T00:15:18.193Z,119.26
2023-04-02T00:16:18.285Z,120.06
2023-04-02T00:17:18.303Z,120.81
2023-04-02T00:18:18.453Z,119.97
2023-04-02T00:19:18.425Z,125.79
2023-04-02T00:20:18.487Z,124.18
2023-04-02T00:21:18.540Z,126.59
2023-04-02T00:22:18.536Z,124.74
2023-04-02T00:23:18.549Z,117.56
2023-04-02T00:24:18.567Z,122.32
2023-04-02T00:25:18.561Z,117.96
2023-04-02T00:26:18.554Z,127.86
2023-04-02T00:27:18.561Z,118.31
2023-04-02T00:28:18.572Z,124.80
2023-04-02T00:29:18.587Z,120.99
2023-04-02T00:30:18.591Z,119.67
2023-04-02T00:31:18.600Z,110.91
2023-04-02T00:32:18.647Z,116.51
2023-04-02T00:33:18.627Z,117.53
2023-04-02T00:34:18.680Z,114.32
2023-04-02T00:35:18.723Z,118.66
2023-04-02T00:36:18.801Z,117.66
2023-04-02T00:37:18.827Z,120.49
2023-04-02T00:38:18.904Z,123.76
2023-04-02T00:39:18.924Z,121.60
2023-04-02T00:40:18.974Z,121.35
2023-04-02T00:41:19.040Z,120.35
2023-04-02T00:42:19.039Z,119.29
2023-04-02T00:43:19.057Z,127.24
2023-04-02T00:44:19.073Z,123.87
2023-04-02T00:45:19.068Z,124.57
2023-04-02T00:46:19.126Z,121.74
2023-04-02T00:47:19.089Z,126.09
2023-04-02T00:48:19.108Z,125.20
2023-04-02T00:49:19.114Z,121.06
2023-04-02T00:50:19.109Z,118.13
2023-04-02T00:51:19.112Z,125.04
2023-04-02T00:52:19.127Z,126.33
2023-04-02T00:53:19.141Z,124.17
2023-04-02T00:54:19.150Z,125.75
2023-04-02T00:55:19.157Z,121.44
2023-04-02T00:56:19.205Z,124.84
2023-04-02T00:57:19.334Z,130.47
2023-04-02T00:58:19.293Z,118.75
2023-04-02T00:59:19.353Z,121.93
2023-04-02T01:00:19.421Z,124.78
2023-04-02T01:01:19.530Z,123.53
2023-04-02T01:02:19.512Z,129.75
2023-04-02T01:03:19.601Z,125.08
2023-04-02T01:04:19.580Z,135.26
2023-04-02T01:05:19.591Z,129.21
2023-04-02T01:06:19.596Z,132.87
2023-04-02T01:07:19.626Z,129.54
2023-04-02T01:08:19.626Z,133.62
2023-04-02T01:09:19.644Z,134.82
2023-04-02T01:10:19.629Z,131.91
2023-04-02T01:11:19.641Z,129.13
2023-04-02T01:12:19.655Z,137.73
2023-04-02T01:13:19.651Z,138.06
2023-04-02T01:14:19.656Z,141.75
2023-04-02T01:15:19.664Z,137.98
2023-04-02T01:16:19.696Z,136.44
2023-04-02T01:17:19.674Z,139.62
2023-04-02T01:18:19.732Z,136.47
2023-04-02T01:19:19.711Z,140.43
2023-04-02T01:20:19.718Z,139.85
2023-04-02T01:21:19.714Z,140.45
2023-04-02T01:22:19.721Z,140.37
2023-04-02T01:23:19.748Z,133.63
2023-04-02T01:24:19.768Z,133.40
2023-04-02T01:25:19.793Z,134.78
2023-04-02T01:26:19.797Z,132.82
2023-04-02T01:27:19.808Z,139.21
2023-04-02T01:28:19.871Z,139.48
2023-04-02T01:29:19.877Z,137.34
2023-04-02T01:30:19.859Z,134.09
2023-04-02T01:31:19.877Z,139.45
2023-04-02T01:32:19.914Z,141.78
2023-04-02T01:33:19.961Z,140.31
2023-04-02T01:34:19.943Z,139.09
2023-04-02T01:35:19.933Z,137.50
2023-04-02T01:36:19.966Z,143.65
2023-04-02T01:37:19.965Z,133.41
2023-04-02T01:38:19.965Z,134.30
2023-04-02T01:39:20.067Z,141.97
2023-04-02T01:40:20.019Z,138.43
2023-04-02T01:41:20.002Z,142.70
2023-04-02T01:42:20.060Z,136.93
2023-04-02T01:43:20.041Z,146.03
2023-04-02T01:44:20.045Z,137.50
2023-04-02T01:45:20.106Z,141.23
2023-04-02T01:46:20.166Z,137.77
2023-04-02T01:47:20.220Z,134.98
2023-04-02T01:48:20.267Z,133.84
2023-04-02T01:49:20.315Z,134.32
2023-04-02T01:50:20.459Z,130.43
2023-04-02T01:51:20.399Z,130.56
2023-04-02T01:52:20.432Z,136.59
2023-04-02T01:53:20.491Z,136.92
2023-04-02T01:54:20.535Z,134.65
2023-04-02T01:55:20.590Z,136.17
2023-04-02T01:56:20.645Z,131.67
2023-04-02T01:57:20.683Z,140.69
2023-04-02T01:58:20.675Z,138.06
2023-04-02T01:59:20.704Z,136.07
2023-04-02T02:00:20.744Z,136.93
2023-04-02T02:01:20.842Z,140.79
2023-04-02T02:02:20.793Z,135.63
2023-04-02T02:03:20.846Z,134.79
2023-04-02T02:04:20.825Z,138.22
2023-04-02T02:05:20.865Z,140.48
2023-04-02T02:06:20.874Z,138.74
2023-04-02T02:07:20.908Z,141.46
2023-04-02T02:08:20.933Z,139.09
2023-04-02T02:09:20.945Z,138.48
2023-04-02T02:10:20.967Z,142.72
2023-04-02T02:11:20.984Z,145.57
2023-04-02T02:12:21.042Z,143.18
2023-04-02T02:13:21.055Z,148.01
2023-04-02T02:14:21.132Z,143.43
2023-04-02T02:15:21.192Z,151.16
2023-04-02T02:16:21.256Z,149.65
2023-04-02T02:17:21.289Z,151.34
2023-04-02T02:18:21.333Z,148.63
2023-04-02T02:19:21.398Z,150.79
2023-04-02T02:20:21.432Z,153.16
2023-04-02T02:21:21.555Z,146.11
2023-04-02T02:22:21.519Z,149.84
2023-04-02T02:23:21.543Z,148.57
2023-04-02T02:24:21.525Z,149.53
2023-04-02T02:25:21.578Z,152.59
2023-04-02T02:26:21.575Z,147.93
2023-04-02T02:27:21.577Z,148.46
2023-04-02T02:28:21.617Z,149.27
2023-04-02T02:29:21.645Z,152.13
2023-04-02T02:30:21.670Z,149.86
2023-04-02T02:31:21.707Z,144.35
2023-04-02T02:32:21.738Z,149.85
2023-04-02T02:33:21.745Z,147.39
2023-04-02T02:34:21.782Z,142.93
2023-04-02T02:35:21.829Z,139.85
2023-04-02T02:36:21.815Z,144.54
2023-04-02T02:37:21.830Z,143.41
2023-04-02T02:38:21.837Z,142.77
2023-04-02T02:39:21.852Z,142.87
2023-04-02T02:40:21.895Z,145.74
2023-04-02T02:41:21.902Z,146.69
2023-04-02T02:42:21.928Z,141.51
2023-04-02T02:43:21.932Z,144.94
2023-04-02T02:44:21.928Z,137.31
2023-04-02T02:45:21.961Z,139.01
2023-04-02T02:46:22.018Z,137.55
2023-04-02T02:47:22.078Z,134.42
2023-04-02T02:48:22.083Z,141.10
2023-04-02T02:49:22.144Z,144.03
2023-04-02T02:50:22.191Z,143.36
2023-04-02T02:51:22.233Z,143.18
2023-04-02T02:52:22.302Z,141.77
2023-04-02T02:53:22.333Z,146.38
2023-04-02T02:54:22.365Z,148.28
2023-04-02T02:55:22.398Z,146.19
2023-04-02T02:56:22.402Z,152.56
2023-04-02T02:57:22.468Z,148.59
2023-04-02T02:58:22.441Z,147.50
2023-04-02T02:59:22.443Z,147.73
2023-04-02T03:00:22.458Z,149.71
2023-04-02T03:01:22.564Z,148.88
2023-04-02T03:02:22.610Z,149.21
2023-04-02T03:03:22.651Z,146.73
2023-04-02T03:04:22.717Z,151.85
2023-04-02T03:05:22.573Z,145.60
2023-04-02T03:06:22.599Z,148.77
2023-04-02T03:07:22.635Z,148.91
2023-04-02T03:08:22.673Z,144.21
2023-04-02T03:09:22.712Z,146.79
2023-04-02T03:10:22.776Z,148.33
2023-04-02T03:11:22.722Z,149.34
2023-04-02T03:12:22.748Z,148.54
2023-04-02T03:13:22.777Z,147.64
2023-04-02T03:14:22.812Z,149.26
2023-04-02T03:15:22.813Z,150.10
2023-04-02T03:16:22.944Z,150.56
2023-04-02T03:17:22.863Z,148.86
2023-04-02T03:18:22.915Z,151.71
2023-04-02T03:19:22.899Z,151.67
2023-04-02T03:20:22.899Z,149.53
2023-04-02T03:21:22.922Z,151.81
2023-04-02T03:22:22.939Z,155.62
2023-04-02T03:23:22.953Z,151.98
2023-04-02T03:24:22.998Z,153.27
2023-04-02T03:25:23.045Z,148.94
2023-04-02T03:26:23.100Z,147.69
2023-04-02T03:27:23.163Z,149.09
2023-04-02T03:28:23.196Z,150.17
2023-04-02T03:29:23.240Z,147.92
2023-04-02T03:30:23.291Z,144.29
2023-04-02T03:31:23.300Z,145.03
2023-04-02T03:32:23.300Z,147.51
2023-04-02T03:33:23.325Z,148.53
2023-04-02T03:34:23.329Z,147.01
2023-04-02T03:35:23.335Z,148.78
2023-04-02T03:36:23.431Z,146.17
2023-04-02T03:37:23.380Z,151.84
2023-04-02T03:38:23.410Z,148.20
2023-04-02T03:39:23.428Z,150.69
2023-04-02T03:40:23.452Z,151.12
2023-04-02T03:41:23.539Z,151.46
2023-04-02T03:42:23.572Z,149.22
2023-04-02T03:43:23.596Z,152.05
2023-04-02T03:44:23.620Z,145.60
2023-04-02T03:45:23.650Z,146.31
2023-04-02T03:46:23.710Z,150.86
2023-04-02T03:47:23.719Z,145.89
2023-04-02T03:48:23.726Z,144.06
2023-04-02T03:49:23.740Z,152.60
2023-04-02T03:50:23.754Z,152.75
2023-04-02T03:51:23.800Z,151.04
2023-04-02T03:52:23.805Z,148.16
2023-04-02T03:53:23.848Z,152.11
2023-04-02T03:54:23.897Z,148.70
2023-04-02T03:55:23.968Z,149.44
2023-04-02T03:56:24.032Z,149.61
2023-04-02T03:57:24.094Z,150.71
2023-04-02T03:58:24.072Z,150.46
2023-04-02T03:59:24.113Z,151.98
2023-04-02T04:00:24.144Z,149.38
2023-04-02T04:01:24.159Z,147.66
2023-04-02T04:02:24.370Z,147.05
2023-04-02T04:03:24.277Z,148.36
2023-04-02T04:04:24.357Z,144.86
2023-04-02T04:05:24.355Z,144.97
2023-04-02T04:06:24.417Z,142.55
2023-04-02T04:07:24.483Z,144.32
2023-04-02T04:08:24.525Z,146.14
2023-04-02T04:09:24.545Z,144.27
2023-04-02T04:10:24.548Z,143.59
2023-04-02T04:11:24.672Z,142.74
2023-04-02T04:12:24.582Z,146.30
2023-04-02T04:13:24.637Z,145.80
2023-04-02T04:14:24.633Z,146.18
2023-04-02T04:15:24.707Z,144.41
2023-04-02T04:16:24.776Z,152.41
2023-04-02T04:17:24.931Z,153.27
2023-04-02T04:18:24.813Z,149.21
2023-04-02T04:19:24.833Z,155.95
2023-04-02T04:20:24.830Z,152.88
2023-04-02T04:21:24.855Z,153.93
2023-04-02T04:22:24.867Z,152.69
2023-04-02T04:23:24.892Z,157.24
2023-04-02T04:24:24.930Z,155.46
2023-04-02T04:25:24.945Z,155.41
2023-04-02T04:26:24.967Z,156.66
2023-04-02T04:27:24.969Z,152.79
2023-04-02T04:28:25.012Z,155.61
2023-04-02T04:29:25.020Z,158.43
2023-04-02T04:30:25.042Z,158.78
2023-04-02T04:31:26.059Z,160.09
2023-04-02T04:32:25.123Z,160.06
2023-04-02T04:33:25.097Z,153.31
2023-04-02T04:34:25.128Z,154.28
2023-04-02T04:35:25.211Z,158.36
2023-04-02T04:36:25.173Z,156.68
2023-04-02T04:37:25.229Z,157.43
2023-04-02T04:38:25.243Z,161.67
2023-04-02T04:39:25.270Z,157.81
2023-04-02T04:40:25.303Z,160.01
2023-04-02T04:41:25.338Z,156.54
2023-04-02T04:42:25.383Z,156.12
2023-04-02T04:43:25.448Z,157.38
2023-04-02T04:44:25.494Z,154.40
2023-04-02T04:45:25.555Z,153.43
2023-04-02T04:46:25.694Z,148.87
2023-04-02T04:47:25.709Z,152.41
2023-04-02T04:48:25.695Z,149.88
2023-04-02T04:49:25.715Z,152.56
2023-04-02T04:50:25.757Z,150.27
2023-04-02T04:51:25.747Z,152.72
2023-04-02T04:52:25.771Z,149.90
2023-04-02T04:53:25.805Z,151.82
2023-04-02T04:54:25.816Z,152.86
2023-04-02T04:55:25.861Z,150.62
2023-04-02T04:56:25.897Z,148.33
2023-04-02T04:57:25.988Z,147.98
2023-04-02T04:58:25.968Z,149.27
2023-04-02T04:59:25.965Z,149.92
2023-04-02T05:00:26.027Z,153.43
2023-04-02T05:01:26.132Z,151.06
2023-04-02T05:02:26.135Z,152.75
2023-04-02T05:03:26.169Z,159.11
2023-04-02T05:04:26.287Z,156.38
2023-04-02T05:05:26.270Z,156.89
2023-04-02T05:06:26.309Z,155.76
2023-04-02T05:07:26.342Z,155.62
2023-04-02T05:08:26.350Z,156.61
2023-04-02T05:09:26.370Z,155.71
2023-04-02T05:10:26.389Z,155.25
2023-04-02T05:11:26.432Z,154.93
2023-04-02T05:12:26.479Z,153.81
2023-04-02T05:13:26.533Z,153.58
2023-04-02T05:14:26.539Z,156.25
2023-04-02T05:15:26.580Z,155.59
2023-04-02T05:16:26.637Z,155.39
2023-04-02T05:17:26.738Z,154.01
2023-04-02T05:18:26.733Z,154.59
2023-04-02T05:19:26.780Z,151.77
2023-04-02T05:20:26.859Z,155.31
2023-04-02T05:21:26.881Z,152.20
2023-04-02T05:22:26.960Z,152.54
2023-04-02T05:23:27.026Z,157.55
2023-04-02T05:24:27.083Z,157.51
2023-04-02T05:25:27.150Z,160.13
2023-04-02T05:26:27.169Z,154.82
2023-04-02T05:27:27.223Z,159.42
2023-04-02T05:28:27.245Z,158.02
2023-04-02T05:29:27.291Z,163.47
2023-04-02T05:30:27.361Z,163.90
2023-04-02T05:31:27.451Z,157.38
2023-04-02T05:32:27.468Z,159.04
2023-04-02T05:33:27.421Z,165.01
2023-04-02T05:34:27.427Z,161.84
2023-04-02T05:35:27.438Z,159.54
2023-04-02T05:36:27.646Z,157.24
2023-04-02T05:37:27.633Z,158.13
2023-04-02T05:38:27.627Z,160.03
2023-04-02T05:39:27.727Z,155.77
2023-04-02T05:40:27.696Z,158.62
2023-04-02T05:41:27.740Z,162.23
2023-04-02T05:42:27.728Z,157.04
2023-04-02T05:43:27.671Z,155.69
2023-04-02T05:44:27.702Z,158.40
2023-04-02T05:45:27.712Z,158.63
2023-04-02T05:46:27.771Z,157.06
2023-04-02T05:47:27.744Z,159.23
2023-04-02T05:48:27.720Z,160.42
2023-04-02T05:49:27.714Z,156.84
2023-04-02T05:50:27.733Z,154.73
2023-04-02T05:51:27.737Z,151.10
2023-04-02T05:52:27.832Z,152.75
2023-04-02T05:53:27.791Z,149.15
2023-04-02T05:54:27.777Z,149.83
2023-04-02T05:55:27.793Z,150.41
2023-04-02T05:56:27.777Z,153.07
2023-04-02T05:57:42.121Z,147.12
2023-04-02T05:59:27.809Z,148.14
2023-04-02T06:00:27.831Z,149.44
2023-04-02T06:01:27.731Z,150.99
2023-04-02T06:02:27.958Z,148.70
2023-04-02T06:03:27.808Z,145.07
2023-04-02T06:04:27.713Z,149.09
2023-04-02T06:05:27.713Z,147.70
2023-04-02T06:06:27.716Z,148.27
2023-04-02T06:07:27.708Z,149.13
2023-04-02T06:08:27.709Z,145.25
2023-04-02T06:09:27.763Z,142.01
2023-04-02T06:10:27.741Z,144.47
2023-04-02T06:11:27.783Z,149.88
2023-04-02T06:12:27.788Z,143.49
2023-04-02T06:13:27.867Z,152.33
2023-04-02T06:14:27.827Z,156.42
2023-04-02T06:15:27.986Z,158.62
2023-04-02T06:16:28.061Z,156.70
2023-04-02T06:17:28.021Z,160.74
2023-04-02T06:18:28.000Z,161.64
2023-04-02T06:19:28.066Z,160.01
2023-04-02T06:20:28.212Z,162.16
2023-04-02T06:21:28.135Z,157.17
2023-04-02T06:22:28.170Z,162.70
2023-04-02T06:23:28.213Z,159.22
2023-04-02T06:24:28.238Z,153.60
2023-04-02T06:25:28.261Z,161.51
2023-04-02T06:26:28.240Z,161.02
2023-04-02T06:27:28.289Z,168.24
2023-04-02T06:28:28.302Z,167.30
2023-04-02T06:29:28.280Z,177.84
2023-04-02T06:30:28.373Z,183.47
2023-04-02T06:31:28.402Z,193.38
2023-04-02T06:32:28.484Z,192.34
2023-04-02T06:33:28.425Z,199.62
2023-04-02T06:34:28.465Z,205.38
2023-04-02T06:35:28.505Z,215.45
2023-04-02T06:36:28.528Z,224.37
2023-04-02T06:37:28.604Z,227.85
2023-04-02T06:38:28.582Z,234.95
2023-04-02T06:39:28.584Z,244.60
2023-04-02T06:40:28.605Z,242.46
2023-04-02T06:41:28.677Z,250.53
2023-04-02T06:42:28.709Z,249.24
2023-04-02T06:43:28.765Z,242.34
2023-04-02T06:44:28.730Z,236.94
2023-04-02T06:45:28.765Z,230.88
2023-04-02T06:46:28.911Z,223.10
2023-04-02T06:47:28.860Z,214.38
2023-04-02T06:48:28.902Z,211.94
2023-04-02T06:49:28.931Z,203.00
2023-04-02T06:50:28.994Z,189.09
2023-04-02T06:51:29.027Z,183.67
2023-04-02T06:52:29.067Z,195.24
2023-04-02T06:53:29.131Z,211.66
2023-04-02T06:54:29.138Z,225.04
2023-04-02T06:55:29.192Z,232.59
2023-04-02T06:56:29.210Z,242.27
2023-04-02T06:57:29.292Z,250.00
2023-04-02T06:58:29.324Z,249.63
2023-04-02T06:59:29.350Z,247.96
2023-04-02T07:00:29.379Z,237.26
2023-04-02T07:01:29.432Z,234.42
2023-04-02T07:02:29.454Z,232.96
2023-04-02T07:03:29.400Z,226.79
2023-04-02T07:04:29.451Z,219.47
2023-04-02T07:05:29.426Z,215.00
2023-04-02T07:06:29.438Z,211.44
2023-04-02T07:07:29.445Z,212.34
2023-04-02T07:08:29.471Z,210.38
2023-04-02T07:09:29.439Z,210.55
2023-04-02T07:10:29.488Z,209.59
2023-04-02T07:11:29.516Z,212.97
2023-04-02T07:12:29.529Z,208.11
2023-04-02T07:13:29.562Z,200.17
2023-04-02T07:14:29.633Z,199.11
2023-04-02T07:15:29.666Z,194.40
2023-04-02T07:16:29.750Z,190.35
2023-04-02T07:17:29.792Z,186.04
2023-04-02T07:18:29.766Z,176.48
2023-04-02T07:19:29.791Z,170.43
2023-04-02T07:20:29.834Z,171.50
2023-04-02T07:21:29.890Z,173.44
2023-04-02T07:22:29.903Z,163.77
2023-04-02T07:23:29.995Z,161.79
2023-04-02T07:24:30.021Z,161.16
2023-04-02T07:25:30.012Z,157.31
2023-04-02T07:26:30.023Z,158.10
2023-04-02T07:27:30.058Z,152.99
2023-04-02T07:28:30.117Z,157.02
2023-04-02T07:29:30.149Z,156.79
2023-04-02T07:30:30.162Z,154.62
2023-04-02T07:31:30.228Z,152.38
2023-04-02T07:32:30.235Z,153.90
2023-04-02T07:33:30.288Z,152.13
2023-04-02T07:34:30.314Z,154.91
2023-04-02T07:35:30.344Z,157.35
2023-04-02T07:36:30.387Z,153.72
2023-04-02T07:37:30.407Z,164.22
2023-04-02T07:38:30.456Z,170.37
2023-04-02T07:39:30.453Z,184.66
2023-04-02T07:40:30.498Z,185.59
2023-04-02T07:41:30.548Z,184.33
2023-04-02T07:42:30.559Z,183.60
2023-04-02T07:43:30.697Z,188.02
2023-04-02T07:44:30.659Z,199.21
2023-04-02T07:45:30.690Z,206.65
2023-04-02T07:46:30.728Z,206.95
2023-04-02T07:47:30.743Z,202.56
2023-04-02T07:48:30.801Z,207.79
2023-04-02T07:49:30.814Z,221.70
2023-04-02T07:50:30.849Z,233.44
2023-04-02T07:51:30.873Z,242.99
2023-04-02T07:52:30.884Z,248.40
2023-04-02T07:53:31.056Z,251.49
2023-04-02T07:54:30.960Z,246.20
2023-04-02T07:55:30.984Z,250.00
2023-04-02T07:56:31.025Z,247.32
2023-04-02T07:57:31.201Z,247.68
2023-04-02T07:58:31.196Z,244.83
2023-04-02T07:59:31.164Z,246.72
2023-04-02T08:00:31.225Z,245.20
2023-04-02T08:01:31.270Z,248.04
2023-04-02T08:02:31.378Z,241.92
2023-04-02T08:03:31.472Z,241.80
2023-04-02T08:04:31.348Z,232.55
2023-04-02T08:05:31.359Z,229.71
2023-04-02T08:06:31.389Z,223.73
2023-04-02T08:07:31.395Z,221.83
2023-04-02T08:08:31.453Z,214.74
2023-04-02T08:09:31.443Z,209.20
2023-04-02T08:10:31.491Z,206.00
2023-04-02T08:11:32.008Z,202.25
2023-04-02T08:12:31.554Z,190.24
2023-04-02T08:13:31.590Z,191.02
2023-04-02T08:14:31.617Z,183.45
2023-04-02T08:15:31.626Z,178.68
2023-04-02T08:16:31.712Z,173.26
2023-04-02T08:17:31.760Z,167.83
2023-04-02T08:18:31.772Z,154.89
2023-04-02T08:19:33.707Z,151.29
2023-04-02T08:20:32.767Z,142.94
2023-04-02T08:21:31.733Z,137.87
2023-04-02T08:22:31.745Z,126.92
2023-04-02T08:23:31.737Z,124.47
2023-04-02T08:24:31.703Z,120.75
2023-04-02T08:25:31.703Z,105.14
2023-04-02T08:26:31.702Z,107.60
2023-04-02T08:27:31.708Z,96.68
2023-04-02T08:28:31.714Z,99.56
2023-04-02T08:29:31.677Z,92.50
2023-04-02T08:30:31.740Z,86.64
2023-04-02T08:31:31.664Z,79.47
2023-04-02T08:32:31.687Z,68.34
2023-04-02T08:33:31.691Z,52.82
2023-04-02T08:34:31.667Z,47.77
2023-04-02T08:35:31.668Z,37.55
2023-04-02T08:36:31.664Z,35.77
2023-04-02T08:37:31.664Z,23.55
2023-04-02T08:38:31.662Z,27.38
2023-04-02T08:39:31.686Z,25.18
2023-04-02T08:40:31.738Z,26.44
2023-04-02T08:41:31.751Z,25.74
2023-04-02T08:42:31.739Z,27.97
2023-04-02T08:43:31.761Z,33.10
2023-04-02T08:44:31.806Z,33.96
2023-04-02T08:45:31.804Z,32.70
2023-04-02T08:46:31.982Z,31.01
2023-04-02T08:47:31.877Z,25.17
2023-04-02T08:48:31.871Z,27.56
2023-04-02T08:49:31.876Z,37.62
2023-04-02T08:50:31.929Z,32.05
2023-04-02T08:51:31.946Z,27.56
2023-04-02T08:52:32.052Z,27.38
2023-04-02T08:53:32.004Z,34.00
2023-04-02T08:54:31.992Z,32.39
2023-04-02T08:55:32.047Z,34.07
2023-04-02T08:56:31.976Z,25.00
2023-04-02T08:57:32.127Z,26.75
2023-04-02T08:58:32.020Z,24.47
2023-04-02T08:59:32.034Z,28.36
2023-04-02T09:00:32.058Z,30.05
2023-04-02T09:01:32.121Z,26.34
2023-04-02T09:02:32.254Z,28.74
2023-04-02T09:03:32.171Z,41.35
2023-04-02T09:04:32.246Z,38.06
2023-04-02T09:05:32.311Z,33.07
2023-04-02T09:06:32.260Z,34.73
2023-04-02T09:07:32.282Z,37.97
2023-04-02T09:08:32.253Z,42.19
2023-04-02T09:09:32.273Z,31.90
2023-04-02T09:10:32.258Z,40.80
2023-04-02T09:11:32.270Z,44.54
2023-04-02T09:12:32.300Z,40.59
2023-04-02T09:13:32.327Z,41.13
2023-04-02T09:14:32.354Z,47.83
2023-04-02T09:15:32.455Z,41.94
2023-04-02T09:16:32.476Z,47.73
2023-04-02T09:17:42.728Z,35.21
2023-04-02T09:18:33.400Z,25.05
2023-04-02T09:19:32.398Z,24.18
2023-04-02T09:20:32.389Z,29.93
2023-04-02T09:21:32.366Z,18.26
2023-04-02T09:22:32.369Z,19.10
2023-04-02T09:23:32.368Z,25.94
2023-04-02T09:24:32.351Z,26.40
2023-04-02T09:25:32.451Z,42.13
2023-04-02T09:26:32.357Z,39.25
2023-04-02T09:27:32.351Z,39.03
2023-04-02T09:28:32.362Z,45.91
2023-04-02T09:29:32.343Z,36.30
2023-04-02T09:30:32.400Z,28.15
2023-04-02T09:31:32.444Z,33.07
2023-04-02T09:32:32.444Z,33.78
2023-04-02T09:33:32.466Z,32.98
2023-04-02T09:34:32.482Z,32.78
2023-04-02T09:35:32.493Z,27.24
2023-04-02T09:36:32.566Z,32.78
2023-04-02T09:37:32.562Z,45.42
2023-04-02T09:38:32.620Z,36.20
2023-04-02T09:39:32.629Z,43.14
2023-04-02T09:40:32.669Z,48.40
2023-04-02T09:41:33.696Z,39.48
2023-04-02T09:42:32.743Z,55.53
2023-04-02T09:43:32.813Z,62.48
2023-04-02T09:44:32.807Z,56.97
2023-04-02T09:45:32.833Z,59.68
2023-04-02T09:46:32.918Z,64.87
2023-04-02T09:47:32.996Z,68.32
2023-04-02T09:48:33.020Z,66.99
2023-04-02T09:49:33.112Z,68.06
2023-04-02T09:50:33.154Z,76.72
2023-04-02T09:51:33.194Z,71.23
2023-04-02T09:52:33.228Z,75.05
2023-04-02T09:53:33.263Z,78.63
2023-04-02T09:54:33.282Z,80.87
2023-04-02T09:55:33.532Z,87.81
2023-04-02T09:56:33.383Z,85.38
2023-04-02T09:57:33.512Z,78.26
2023-04-02T09:58:33.450Z,78.57
2023-04-02T09:59:33.524Z,84.29
2023-04-02T10:00:33.601Z,84.28
2023-04-02T10:01:33.673Z,85.53
2023-04-02T10:02:33.747Z,88.23
2023-04-02T10:03:33.740Z,90.59
2023-04-02T10:04:33.924Z,87.99
2023-04-02T10:05:40.749Z,91.27
2023-04-02T10:06:34.849Z,91.30
2023-04-02T10:07:33.829Z,91.13
2023-04-02T10:08:33.810Z,92.18
2023-04-02T10:09:33.829Z,95.89
2023-04-02T10:10:33.978Z,99.01
2023-04-02T10:11:45.798Z,95.39
2023-04-02T10:12:34.796Z,95.44
2023-04-02T10:13:33.782Z,93.40
2023-04-02T10:14:33.781Z,92.17
2023-04-02T10:15:34.163Z,87.48
2023-04-02T10:16:33.862Z,93.42
2023-04-02T10:17:33.804Z,90.45
2023-04-02T10:18:33.758Z,93.96
2023-04-02T10:19:33.773Z,91.71
2023-04-02T10:20:39.109Z,93.61
2023-04-02T10:21:34.761Z,93.75
2023-04-02T10:22:33.742Z,91.95
2023-04-02T10:23:33.722Z,90.96
2023-04-02T10:24:33.720Z,85.24
2023-04-02T10:25:33.897Z,88.56
2023-04-02T10:26:33.719Z,94.15
2023-04-02T10:27:33.722Z,87.32
2023-04-02T10:28:33.692Z,93.49
2023-04-02T10:29:33.688Z,91.50
2023-04-02T10:30:33.722Z,92.37
2023-04-02T10:31:33.652Z,87.60
2023-04-02T10:32:33.717Z,85.46
2023-04-02T10:33:33.661Z,81.17
2023-04-02T10:34:33.703Z,85.54
2023-04-02T10:35:33.750Z,88.19
2023-04-02T10:36:33.652Z,79.60
2023-04-02T10:37:33.657Z,78.60
2023-04-02T10:38:33.617Z,85.86
2023-04-02T10:39:33.605Z,83.60
2023-04-02T10:40:33.617Z,82.30
2023-04-02T10:41:33.624Z,77.20
2023-04-02T10:42:33.621Z,78.27
2023-04-02T10:43:33.613Z,79.50
2023-04-02T10:44:33.636Z,78.74
2023-04-02T10:45:33.925Z,70.61
2023-04-02T10:46:33.744Z,67.93
2023-04-02T10:47:33.761Z,76.20
2023-04-02T10:48:33.785Z,75.02
2023-04-02T10:49:33.864Z,73.18
2023-04-02T10:50:33.850Z,81.74
2023-04-02T10:51:33.899Z,75.42
2023-04-02T10:52:33.944Z,69.70
2023-04-02T10:53:33.957Z,65.96
2023-04-02T10:54:33.981Z,71.09
2023-04-02T10:55:34.290Z,70.82
2023-04-02T10:56:44.165Z,73.58
2023-04-02T10:57:35.153Z,70.64
2023-04-02T10:58:34.021Z,72.92
2023-04-02T10:59:34.030Z,75.54
2023-04-02T11:00:34.011Z,73.40
2023-04-02T11:01:34.048Z,78.18
2023-04-02T11:02:34.083Z,82.48
2023-04-02T11:03:34.028Z,79.97
2023-04-02T11:04:33.981Z,75.16
2023-04-02T11:06:33.955Z,80.00
2023-04-02T11:07:33.968Z,81.05
2023-04-02T11:08:33.944Z,80.66
2023-04-02T11:09:33.955Z,86.93
2023-04-02T11:10:33.951Z,85.84
2023-04-02T11:11:34.000Z,80.46
2023-04-02T11:12:35.436Z,94.79
2023-04-02T11:13:34.070Z,97.03
2023-04-02T11:14:34.058Z,91.30
2023-04-02T11:15:34.264Z,89.98
2023-04-02T11:16:35.001Z,90.11
2023-04-02T11:17:34.086Z,88.68
2023-04-02T11:18:34.047Z,91.63
2023-04-02T11:19:34.092Z,91.14
2023-04-02T11:20:34.117Z,92.82
2023-04-02T11:21:34.888Z,97.91
2023-04-02T11:22:34.188Z,97.96
2023-04-02T11:23:34.230Z,95.17
2023-04-02T11:24:34.310Z,96.17
2023-04-02T11:25:34.454Z,97.67
2023-04-02T11:26:34.301Z,94.28
2023-04-02T11:27:34.315Z,94.08
2023-04-02T11:28:34.317Z,99.50
2023-04-02T11:29:34.320Z,96.36
2023-04-02T11:30:34.346Z,92.03
2023-04-02T11:31:34.429Z,96.24
2023-04-02T11:32:34.445Z,101.32
2023-04-02T11:33:39.241Z,102.56
2023-04-02T11:34:35.432Z,102.63
2023-04-02T11:35:34.791Z,102.97
2023-04-02T11:36:34.403Z,102.72
2023-04-02T11:37:34.384Z,99.07
2023-04-02T11:38:34.404Z,102.75
2023-04-02T11:39:34.398Z,103.99
2023-04-02T11:40:34.370Z,100.51
2023-04-02T11:41:34.366Z,98.84
2023-04-02T11:42:34.380Z,93.73
2023-04-02T11:43:34.398Z,95.29
2023-04-02T11:44:34.420Z,102.25
2023-04-02T11:45:43.151Z,101.88
2023-04-02T11:46:35.525Z,94.35
2023-04-02T11:47:34.485Z,98.91
2023-04-02T11:48:34.472Z,100.47
2023-04-02T11:49:34.465Z,98.05
2023-04-02T11:50:34.484Z,101.40
2023-04-02T11:51:34.447Z,105.10
2023-04-02T11:52:34.447Z,101.62
2023-04-02T11:53:34.420Z,102.57
2023-04-02T11:54:34.420Z,100.86
2023-04-02T11:55:34.609Z,93.17
2023-04-02T11:56:34.413Z,95.62
2023-04-02T11:57:34.517Z,98.82
2023-04-02T11:58:34.402Z,93.27
2023-04-02T11:59:34.380Z,95.19
2023-04-02T12:00:34.710Z,89.18
2023-04-02T12:01:34.517Z,83.63
2023-04-02T12:02:34.694Z,84.19
2023-04-02T12:03:34.603Z,79.57
2023-04-02T12:04:34.678Z,74.96
2023-04-02T12:05:34.894Z,68.47
2023-04-02T12:06:34.720Z,82.67
2023-04-02T12:07:34.756Z,77.94
2023-04-02T12:08:36.227Z,73.35
2023-04-02T12:09:35.805Z,73.64
2023-04-02T12:10:34.761Z,74.30
2023-04-02T12:11:34.766Z,74.73
2023-04-02T12:12:34.766Z,76.48
2023-04-02T12:13:34.748Z,75.44
2023-04-02T12:14:34.737Z,79.43
2023-04-02T12:15:34.859Z,80.85
2023-04-02T12:16:34.747Z,80.23
2023-04-02T12:17:34.800Z,74.74
2023-04-02T12:18:34.706Z,79.33
2023-04-02T12:19:34.746Z,76.49
2023-04-02T12:20:35.003Z,77.12
2023-04-02T12:21:34.773Z,78.58
2023-04-02T12:22:34.801Z,79.97
2023-04-02T12:23:34.845Z,76.86
2023-04-02T12:24:34.876Z,74.69
2023-04-02T12:25:34.954Z,70.59
2023-04-02T12:26:34.938Z,74.60
2023-04-02T12:27:34.987Z,80.55
2023-04-02T12:28:35.022Z,81.21
2023-04-02T12:29:35.063Z,77.05
2023-04-02T12:30:35.235Z,69.61
2023-04-02T12:31:35.130Z,71.65
2023-04-02T12:32:35.205Z,72.93
2023-04-02T12:33:35.194Z,73.92
2023-04-02T12:34:35.245Z,78.08
2023-04-02T12:35:35.350Z,73.42
2023-04-02T12:36:35.313Z,75.08
2023-04-02T12:37:35.352Z,72.95